createdAt,value
2018-06-24T00:00:52.433Z,96.50
2018-06-24T00:03:20.241Z,96.10
2018-06-24T00:05:48.029Z,96.70
2018-06-24T00:08:15.877Z,96.10
2018-06-24T00:10:43.595Z,96.80
2018-06-24T00:13:11.405Z,96.60
2018-06-24T00:15:39.187Z,96.20
2018-06-24T00:18:07.227Z,96.70
2018-06-24T00:20:43.989Z,96.40
2018-06-24T00:23:11.920Z,96.60
2018-06-24T00:25:39.854Z,96.80
2018-06-24T00:28:07.805Z,96.60
2018-06-24T00:30:48.974Z,96.40
2018-06-24T00:33:29.973Z,96.40
2018-06-24T00:35:57.795Z,96.60
2018-06-24T00:38:25.685Z,96.40
2018-06-24T00:40:53.541Z,96.60
2018-06-24T00:43:21.309Z,96.70
2018-06-24T00:45:49.073Z,96.30
2018-06-24T00:48:16.958Z,95.80
2018-06-24T00:50:44.690Z,96.00
2018-06-24T00:53:12.485Z,95.10
2018-06-24T00:55:40.235Z,95.80
2018-06-24T00:58:08.116Z,96.10
2018-06-24T01:00:36.009Z,96.60
2018-06-24T01:03:03.875Z,96.00
2018-06-24T01:05:31.675Z,96.20
2018-06-24T01:07:59.595Z,96.50
2018-06-24T01:10:27.406Z,96.50
2018-06-24T01:12:55.265Z,97.20
2018-06-24T01:15:23.073Z,96.80
2018-06-24T01:17:50.931Z,96.70
2018-06-24T01:20:19.115Z,96.80
2018-06-24T01:22:46.967Z,97.60
2018-06-24T01:25:14.831Z,96.70
2018-06-24T01:27:42.599Z,97.00
2018-06-24T01:30:10.357Z,97.50
2018-06-24T01:32:38.199Z,97.40
2018-06-24T01:35:15.676Z,96.70
2018-06-24T01:37:43.636Z,96.60
2018-06-24T01:40:11.529Z,96.80
2018-06-24T01:42:39.415Z,97.40
2018-06-24T01:45:07.343Z,97.00
2018-06-24T01:47:35.216Z,97.00
2018-06-24T01:50:03.070Z,96.50
2018-06-24T01:52:30.847Z,97.20
2018-06-24T01:54:58.619Z,97.30
2018-06-24T01:57:26.410Z,97.30
2018-06-24T01:59:54.281Z,96.10
2018-06-24T02:02:22.035Z,96.70
2018-06-24T02:04:49.869Z,97.00
2018-06-24T02:07:17.639Z,97.60
2018-06-24T02:09:45.569Z,97.20
2018-06-24T02:12:13.442Z,97.00
2018-06-24T02:14:41.241Z,97.10
2018-06-24T02:17:09.091Z,97.10
2018-06-24T02:19:36.827Z,97.30
2018-06-24T02:22:04.807Z,96.70
2018-06-24T02:24:32.607Z,97.50
2018-06-24T02:27:00.383Z,97.70
2018-06-24T02:29:28.257Z,97.80
2018-06-24T02:31:56.083Z,98.30
2018-06-24T02:34:23.877Z,98.40
2018-06-24T02:36:51.639Z,98.30
2018-06-24T02:39:19.395Z,98.30
2018-06-24T02:41:47.195Z,98.50
2018-06-24T02:44:14.992Z,98.70
2018-06-24T02:46:42.828Z,98.70
2018-06-24T02:49:10.615Z,98.90
2018-06-24T02:51:38.449Z,98.70
2018-06-24T02:54:06.242Z,98.80
2018-06-24T02:56:34.056Z,98.80
2018-06-24T02:59:01.812Z,99.20
2018-06-24T03:01:38.006Z,98.90
2018-06-24T03:04:14.094Z,98.80
2018-06-24T03:06:55.146Z,99.00
2018-06-24T03:09:23.131Z,99.00
2018-06-24T03:11:58.417Z,99.00
2018-06-24T03:14:26.426Z,98.40
2018-06-24T03:16:54.183Z,98.50
2018-06-24T03:19:22.323Z,98.40
2018-06-24T03:21:50.107Z,98.40
2018-06-24T03:24:18.098Z,98.20
2018-06-24T03:26:45.867Z,98.00
2018-06-24T03:29:13.823Z,97.90
2018-06-24T03:31:41.561Z,99.00
2018-06-24T03:34:09.532Z,99.20
2018-06-24T03:36:37.286Z,99.20
2018-06-24T03:39:07.372Z,99.30
2018-06-24T03:41:35.149Z,99.20
2018-06-24T03:44:17.812Z,99.00
2018-06-24T03:46:53.888Z,99.30
2018-06-24T03:49:28.037Z,99.20
2018-06-24T03:51:56.083Z,99.30
2018-06-24T03:54:31.227Z,99.10
2018-06-24T03:57:08.156Z,98.90
2018-06-24T03:59:42.364Z,99.10
2018-06-24T04:04:47.510Z,99.10
2018-06-24T04:07:15.458Z,98.60
2018-06-24T04:09:43.295Z,98.70
2018-06-24T04:12:19.538Z,98.60
2018-06-24T04:15:00.397Z,99.00
2018-06-24T04:17:28.232Z,98.90
2018-06-24T04:19:56.022Z,98.90
2018-06-24T04:22:23.772Z,98.30
2018-06-24T04:24:51.660Z,98.10
2018-06-24T04:27:19.411Z,98.20
2018-06-24T04:29:47.197Z,98.60
2018-06-24T04:32:14.966Z,98.60
2018-06-24T04:34:42.857Z,98.40
2018-06-24T04:37:10.601Z,98.30
2018-06-24T04:39:38.419Z,98.60
2018-06-24T04:42:06.148Z,98.90
2018-06-24T04:44:33.985Z,98.60
2018-06-24T04:47:01.914Z,98.20
2018-06-24T04:49:29.712Z,98.40
2018-06-24T04:51:57.575Z,98.40
2018-06-24T04:54:25.426Z,98.20
2018-06-24T04:56:53.288Z,98.30
2018-06-24T04:59:21.077Z,98.70
2018-06-24T05:01:48.948Z,98.80
2018-06-24T05:04:16.709Z,98.60
2018-06-24T05:06:44.539Z,98.90
2018-06-24T05:09:12.295Z,98.90
2018-06-24T05:12:07.704Z,98.80
2018-06-24T05:14:46.244Z,98.70
2018-06-24T05:17:14.202Z,98.20
2018-06-24T05:19:46.100Z,98.00
2018-06-24T05:22:18.618Z,97.70
2018-06-24T05:24:46.624Z,97.60
2018-06-24T05:27:14.577Z,97.50
2018-06-24T05:29:48.752Z,97.60
2018-06-24T05:32:18.350Z,97.70
2018-06-24T05:34:46.304Z,97.50
2018-06-24T05:37:14.226Z,97.20
2018-06-24T05:39:52.341Z,97.10
2018-06-24T05:44:58.568Z,96.70
2018-06-24T05:47:26.482Z,96.50
2018-06-24T05:49:54.249Z,96.40
2018-06-24T05:52:22.075Z,96.20
2018-06-24T05:54:49.816Z,96.10
2018-06-24T05:57:17.664Z,95.90
2018-06-24T05:59:45.399Z,96.10
2018-06-24T06:02:13.239Z,95.70
2018-06-24T06:04:41.039Z,95.20
2018-06-24T06:07:08.930Z,94.30
2018-06-24T06:09:36.693Z,93.90
2018-06-24T06:12:04.599Z,93.80
2018-06-24T06:14:32.403Z,93.30
2018-06-24T06:17:18.673Z,93.00
2018-06-24T06:19:46.606Z,93.10
2018-06-24T06:22:14.566Z,92.30
2018-06-24T06:24:42.450Z,91.50
2018-06-24T06:27:10.458Z,91.50
2018-06-24T06:29:38.431Z,91.50
2018-06-24T06:32:06.412Z,91.20
2018-06-24T06:34:47.191Z,91.20
2018-06-24T06:37:32.173Z,90.70
2018-06-24T06:40:12.587Z,90.70
2018-06-24T06:42:43.732Z,90.00
2018-06-24T06:45:11.918Z,90.30
2018-06-24T06:47:39.755Z,90.10
2018-06-24T06:50:08.979Z,89.40
2018-06-24T06:52:36.967Z,88.10
2018-06-24T06:55:04.940Z,86.60
2018-06-24T06:57:32.974Z,86.60
2018-06-24T07:00:00.987Z,87.20
2018-06-24T07:02:28.881Z,89.60
2018-06-24T07:07:26.228Z,89.10
2018-06-24T07:09:54.166Z,87.80
2018-06-24T07:12:22.166Z,84.40
2018-06-24T07:14:50.073Z,83.50
2018-06-24T07:17:17.950Z,83.40
2018-06-24T07:19:45.842Z,82.70
2018-06-24T07:22:13.831Z,82.40
2018-06-24T07:24:42.720Z,82.80
2018-06-24T07:27:10.725Z,83.60
2018-06-24T07:29:47.298Z,83.30
2018-06-24T07:32:15.222Z,81.40
2018-06-24T07:34:43.062Z,81.60
2018-06-24T07:37:18.776Z,82.20
2018-06-24T07:39:46.699Z,81.80
2018-06-24T07:42:14.497Z,82.00
2018-06-24T07:44:42.346Z,82.90
2018-06-24T07:47:10.143Z,81.90
2018-06-24T07:49:38.021Z,82.60
2018-06-24T07:52:05.951Z,82.00
2018-06-24T07:54:33.906Z,81.70
2018-06-24T07:57:01.678Z,83.80
2018-06-24T07:59:29.521Z,81.70
2018-06-24T08:01:58.031Z,82.60
2018-06-24T08:04:25.907Z,82.90
2018-06-24T08:06:53.767Z,83.30
2018-06-24T08:09:21.737Z,82.80
2018-06-24T08:11:49.564Z,82.10
2018-06-24T08:14:17.417Z,82.50
2018-06-24T08:16:45.336Z,82.70
2018-06-24T08:19:13.219Z,81.90
2018-06-24T08:21:41.134Z,80.80
2018-06-24T08:24:08.891Z,78.60
2018-06-24T08:26:36.767Z,77.90
2018-06-24T08:29:04.714Z,78.80
2018-06-24T08:31:32.663Z,77.80
2018-06-24T08:34:00.542Z,78.10
2018-06-24T08:36:28.407Z,75.40
2018-06-24T08:38:56.316Z,76.00
2018-06-24T08:41:38.303Z,77.20
2018-06-24T08:44:06.899Z,79.50
2018-06-24T08:46:34.937Z,78.00
2018-06-24T08:49:02.809Z,76.70
2018-06-24T08:51:30.641Z,77.00
2018-06-24T08:53:58.393Z,76.60
2018-06-24T08:56:26.280Z,75.60
2018-06-24T08:58:54.102Z,75.50
2018-06-24T09:01:21.980Z,76.00
2018-06-24T09:03:49.777Z,75.20
2018-06-24T09:06:17.580Z,72.90
2018-06-24T09:08:45.384Z,74.30
2018-06-24T09:11:13.284Z,72.00
2018-06-24T09:13:41.059Z,70.90
2018-06-24T09:16:09.020Z,69.40
2018-06-24T09:18:37.006Z,70.20
2018-06-24T09:21:04.905Z,70.40
2018-06-24T09:23:32.808Z,68.80
2018-06-24T09:26:00.593Z,70.10
2018-06-24T09:28:28.418Z,70.00
2018-06-24T09:30:56.169Z,70.50
2018-06-24T09:33:24.137Z,72.10
2018-06-24T09:35:51.932Z,71.20
2018-06-24T09:38:19.804Z,71.10
2018-06-24T09:40:47.594Z,71.40
2018-06-24T09:43:15.623Z,70.40
2018-06-24T09:45:43.577Z,69.30
2018-06-24T09:48:25.667Z,71.00
2018-06-24T09:50:53.606Z,67.40
2018-06-24T09:55:54.696Z,67.20
2018-06-24T09:58:22.627Z,67.10
2018-06-24T10:00:50.625Z,68.50
2018-06-24T10:03:18.656Z,69.30
2018-06-24T10:06:03.385Z,67.10
2018-06-24T10:08:31.313Z,67.60
2018-06-24T10:10:59.399Z,67.00
2018-06-24T10:13:27.382Z,66.70
2018-06-24T10:15:59.956Z,62.70
2018-06-24T10:18:27.837Z,63.70
2018-06-24T10:20:55.833Z,61.80
2018-06-24T10:23:23.701Z,62.30
2018-06-24T10:25:51.574Z,61.30
2018-06-24T10:28:22.606Z,60.10
2018-06-24T10:30:50.520Z,63.30
2018-06-24T10:33:18.345Z,61.50
2018-06-24T10:35:46.261Z,60.60
2018-06-24T10:38:14.139Z,60.60
2018-06-24T10:40:42.082Z,59.40
2018-06-24T10:43:09.898Z,61.20
2018-06-24T10:45:37.811Z,62.20
2018-06-24T10:48:06.290Z,62.00
2018-06-24T10:50:34.262Z,60.00
2018-06-24T10:53:03.390Z,62.00
2018-06-24T10:55:31.423Z,62.00
2018-06-24T10:58:00.466Z,63.30
2018-06-24T11:00:28.463Z,63.70
2018-06-24T11:03:05.635Z,64.10
2018-06-24T11:05:33.657Z,62.50
2018-06-24T11:08:01.700Z,63.50
2018-06-24T11:10:29.463Z,60.90
2018-06-24T11:12:57.315Z,62.20
2018-06-24T11:15:25.096Z,62.90
2018-06-24T11:17:53.084Z,62.70
2018-06-24T11:20:20.906Z,65.00
2018-06-24T11:22:48.744Z,63.70
2018-06-24T11:25:16.485Z,63.50
2018-06-24T11:27:44.368Z,62.60
2018-06-24T11:30:12.238Z,63.50
2018-06-24T11:32:40.140Z,64.40
2018-06-24T11:35:07.934Z,63.90
2018-06-24T11:37:35.781Z,65.30
2018-06-24T11:40:03.606Z,64.00
2018-06-24T11:42:31.368Z,63.20
2018-06-24T11:44:59.242Z,61.70
2018-06-24T11:47:27.077Z,62.50
2018-06-24T11:49:54.949Z,64.40
2018-06-24T11:52:22.771Z,62.00
2018-06-24T11:54:54.282Z,61.80
2018-06-24T11:57:26.792Z,61.40
2018-06-24T11:59:54.933Z,62.70
2018-06-24T12:02:22.848Z,60.50
2018-06-24T12:04:50.800Z,60.60
2018-06-24T12:07:18.653Z,59.30
2018-06-24T12:09:46.518Z,58.50
2018-06-24T12:12:14.304Z,59.50
2018-06-24T12:14:42.123Z,59.30
2018-06-24T12:17:10.748Z,60.00
2018-06-24T12:19:38.532Z,58.40
2018-06-24T12:22:06.335Z,59.50
2018-06-24T12:24:34.179Z,61.30
2018-06-24T12:27:01.976Z,61.30
2018-06-24T12:29:29.850Z,61.20
2018-06-24T12:31:57.633Z,61.20
2018-06-24T12:34:25.448Z,61.20
2018-06-24T12:36:53.356Z,61.50
2018-06-24T12:39:21.155Z,60.90
2018-06-24T12:41:48.977Z,59.30
2018-06-24T12:44:16.740Z,58.00
2018-06-24T12:46:44.571Z,58.50
2018-06-24T12:49:12.324Z,59.10
2018-06-24T12:51:40.242Z,58.70
2018-06-24T12:54:08.078Z,59.10
2018-06-24T12:56:35.985Z,58.40
2018-06-24T12:59:16.913Z,60.20
2018-06-24T13:01:52.012Z,59.40
2018-06-24T13:04:19.907Z,59.30
2018-06-24T13:06:47.872Z,58.90
2018-06-24T13:09:19.075Z,57.10
2018-06-24T13:11:46.907Z,56.80
2018-06-24T13:14:14.871Z,57.80
2018-06-24T13:16:42.670Z,56.30
2018-06-24T13:19:10.554Z,56.50
2018-06-24T13:21:38.330Z,56.90
2018-06-24T13:24:06.115Z,55.80
2018-06-24T13:26:33.893Z,55.40
2018-06-24T13:29:01.763Z,54.80
2018-06-24T13:31:29.520Z,55.60
2018-06-24T13:33:57.347Z,56.70
2018-06-24T13:36:25.127Z,57.70
2018-06-24T13:38:52.934Z,57.40
2018-06-24T13:41:20.824Z,57.10
2018-06-24T13:43:48.641Z,58.20
2018-06-24T13:46:19.686Z,56.70
2018-06-24T13:48:47.489Z,56.60
2018-06-24T13:51:15.925Z,58.10
2018-06-24T13:53:43.684Z,57.90
2018-06-24T13:56:11.732Z,58.00
2018-06-24T13:58:39.512Z,56.10
2018-06-24T14:01:07.475Z,56.30
2018-06-24T14:03:35.473Z,55.60
2018-06-24T14:06:16.445Z,55.30
2018-06-24T14:08:44.359Z,56.00
2018-06-24T14:11:12.376Z,56.60
2018-06-24T14:13:40.320Z,58.20
2018-06-24T14:16:08.374Z,59.90
2018-06-24T14:18:36.329Z,60.40
2018-06-24T14:21:04.257Z,59.60
2018-06-24T14:23:32.436Z,59.90
2018-06-24T14:26:00.142Z,61.20
2018-06-24T14:28:28.218Z,62.80
2018-06-24T14:30:56.068Z,62.70
2018-06-24T14:33:24.175Z,62.10
2018-06-24T14:35:52.021Z,61.80
2018-06-24T14:38:20.112Z,61.60
2018-06-24T14:40:47.956Z,62.80
2018-06-24T14:43:16.023Z,63.50
2018-06-24T14:45:43.830Z,65.30
2018-06-24T14:48:11.939Z,62.90
2018-06-24T14:50:40.924Z,62.50
2018-06-24T14:53:08.757Z,61.50
2018-06-24T14:55:36.842Z,61.80
2018-06-24T14:58:04.729Z,62.00
2018-06-24T15:00:32.729Z,61.50
2018-06-24T15:03:00.557Z,62.40
2018-06-24T15:05:28.604Z,63.10
2018-06-24T15:08:09.090Z,63.50
2018-06-24T15:10:54.278Z,61.30
2018-06-24T15:13:34.049Z,62.50
2018-06-24T15:16:02.049Z,62.80
2018-06-24T15:18:29.901Z,62.60
2018-06-24T15:20:58.063Z,62.80
2018-06-24T15:23:26.047Z,62.80
2018-06-24T15:25:54.090Z,63.30
2018-06-24T15:28:25.855Z,62.40
2018-06-24T15:30:53.931Z,62.00
2018-06-24T15:33:33.827Z,62.80
2018-06-24T15:36:01.875Z,62.30
2018-06-24T15:38:29.990Z,64.30
2018-06-24T15:40:57.982Z,64.00
2018-06-24T15:43:26.121Z,63.80
2018-06-24T15:45:54.051Z,64.60
2018-06-24T15:48:22.093Z,64.40
2018-06-24T15:50:50.005Z,65.00
2018-06-24T15:53:18.014Z,66.70
2018-06-24T15:55:45.985Z,67.80
2018-06-24T15:58:13.977Z,69.10
2018-06-24T16:00:41.910Z,69.40
2018-06-24T16:03:09.898Z,70.40
2018-06-24T16:05:37.886Z,70.60
2018-06-24T16:08:06.914Z,70.10
2018-06-24T16:10:39.000Z,69.10
2018-06-24T16:13:10.503Z,69.90
2018-06-24T16:15:42.239Z,70.90
2018-06-24T16:18:10.358Z,71.60
2018-06-24T16:20:51.590Z,71.40
2018-06-24T16:23:20.562Z,72.20
2018-06-24T16:25:48.561Z,72.70
2018-06-24T16:28:24.548Z,70.50
2018-06-24T16:30:52.491Z,70.80
2018-06-24T16:33:24.503Z,71.00
2018-06-24T16:35:52.385Z,71.10
2018-06-24T16:38:20.340Z,71.70
2018-06-24T16:40:48.216Z,70.80
2018-06-24T16:43:16.182Z,68.70
2018-06-24T16:45:44.145Z,69.80
2018-06-24T16:48:12.141Z,69.40
2018-06-24T16:50:40.044Z,69.70
2018-06-24T16:53:08.023Z,70.60
2018-06-24T16:55:35.844Z,70.30
2018-06-24T16:58:03.774Z,69.80
2018-06-24T17:00:31.665Z,69.90
2018-06-24T17:02:59.450Z,70.60
2018-06-24T17:05:27.354Z,68.60
2018-06-24T17:07:55.242Z,68.20
2018-06-24T17:10:23.238Z,65.80
2018-06-24T17:12:51.946Z,66.70
2018-06-24T17:15:19.858Z,67.20
2018-06-24T17:17:47.881Z,68.60
2018-06-24T17:20:15.830Z,69.40
2018-06-24T17:22:43.795Z,70.60
2018-06-24T17:25:11.740Z,71.70
2018-06-24T17:27:39.702Z,72.30
2018-06-24T17:30:07.630Z,72.10
2018-06-24T17:32:35.649Z,71.40
2018-06-24T17:35:03.646Z,71.70
2018-06-24T17:40:04.666Z,71.90
2018-06-24T17:42:32.597Z,71.10
2018-06-24T17:45:00.605Z,71.30
2018-06-24T17:47:28.554Z,71.90
2018-06-24T17:50:17.210Z,72.30
2018-06-24T17:52:45.116Z,72.20
2018-06-24T17:55:13.118Z,72.70
2018-06-24T17:57:41.027Z,73.00
2018-06-24T18:00:09.061Z,72.50
2018-06-24T18:02:37.093Z,71.80
2018-06-24T18:05:05.324Z,71.80
2018-06-24T18:07:37.170Z,71.70
2018-06-24T18:10:05.177Z,71.60
2018-06-24T18:12:33.100Z,71.80
2018-06-24T18:15:01.159Z,71.60
2018-06-24T18:17:29.116Z,72.20
2018-06-24T18:20:25.824Z,72.60
2018-06-24T18:22:53.690Z,73.20
2018-06-24T18:25:34.089Z,73.50
2018-06-24T18:28:12.431Z,73.10
2018-06-24T18:33:24.783Z,71.40
2018-06-24T18:35:52.788Z,69.40
2018-06-24T18:38:20.836Z,69.70
2018-06-24T18:40:48.757Z,70.30
2018-06-24T18:45:45.769Z,71.10
2018-06-24T18:48:13.800Z,71.90
2018-06-24T18:50:41.757Z,71.90
2018-06-24T18:53:09.853Z,72.20
2018-06-24T18:55:37.773Z,71.40
2018-06-24T18:58:05.903Z,72.30
2018-06-24T19:00:37.813Z,73.30
2018-06-24T19:03:05.750Z,72.40
2018-06-24T19:05:36.965Z,72.20
2018-06-24T19:08:05.277Z,72.10
2018-06-24T19:10:33.191Z,71.80
2018-06-24T19:13:01.966Z,71.50
2018-06-24T19:15:30.540Z,71.90
2018-06-24T19:17:58.725Z,72.00
2018-06-24T19:20:27.138Z,72.20
2018-06-24T19:22:55.231Z,72.20
2018-06-24T19:25:23.152Z,72.20
2018-06-24T19:27:51.168Z,72.50
2018-06-24T19:30:19.183Z,72.80
2018-06-24T19:32:47.568Z,72.50
2018-06-24T19:35:15.724Z,73.00
2018-06-24T19:37:44.036Z,74.00
2018-06-24T19:40:14.270Z,74.50
2018-06-24T19:42:42.301Z,75.20
2018-06-24T19:45:10.878Z,75.00
2018-06-24T19:47:38.908Z,75.00
2018-06-24T19:50:06.982Z,75.90
2018-06-24T19:52:35.016Z,75.20
2018-06-24T19:55:03.083Z,75.70
2018-06-24T19:57:31.113Z,76.20
2018-06-24T19:59:59.172Z,76.20
2018-06-24T20:02:27.220Z,76.90
2018-06-24T20:04:55.243Z,78.00
2018-06-24T20:07:26.927Z,77.90
2018-06-24T20:09:55.051Z,77.70
2018-06-24T20:12:23.124Z,78.10
2018-06-24T20:14:51.600Z,77.90
2018-06-24T20:17:20.319Z,78.30
2018-06-24T20:19:49.053Z,79.00
2018-06-24T20:22:17.976Z,78.80
2018-06-24T20:24:46.596Z,79.10
2018-06-24T20:27:15.896Z,79.20
2018-06-24T20:29:43.942Z,80.40
2018-06-24T20:32:12.293Z,80.30
2018-06-24T20:34:40.183Z,81.40
2018-06-24T20:37:08.639Z,81.30
2018-06-24T20:39:36.755Z,82.20
2018-06-24T20:42:05.021Z,82.20
2018-06-24T20:44:33.089Z,83.00
2018-06-24T20:49:26.545Z,84.30
2018-06-24T20:51:54.619Z,84.30
2018-06-24T20:54:22.637Z,85.10
2018-06-24T20:56:50.777Z,86.00
2018-06-24T20:59:18.785Z,86.00
2018-06-24T21:01:46.951Z,85.50
2018-06-24T21:04:14.924Z,86.40
2018-06-24T21:06:43.053Z,87.40
2018-06-24T21:09:11.575Z,88.10
2018-06-24T21:11:39.803Z,87.80
2018-06-24T21:14:07.825Z,88.50
2018-06-24T21:16:36.017Z,88.60
2018-06-24T21:19:04.827Z,89.30
2018-06-24T21:21:33.685Z,89.40
2018-06-24T21:24:01.767Z,89.90
2018-06-24T21:26:31.220Z,90.30
2018-06-24T21:28:59.912Z,90.80
2018-06-24T21:31:29.004Z,90.90
2018-06-24T21:33:58.089Z,91.20
2018-06-24T21:36:26.684Z,91.30
2018-06-24T21:38:54.612Z,92.00
2018-06-24T21:41:22.620Z,92.40
2018-06-24T21:43:50.547Z,92.20
2018-06-24T21:46:18.563Z,92.90
2018-06-24T21:48:47.947Z,93.60
2018-06-24T21:51:16.034Z,93.00
2018-06-24T21:53:44.116Z,93.00
2018-06-24T21:56:12.177Z,93.80
2018-06-24T21:58:43.207Z,93.70
2018-06-24T22:01:11.130Z,93.80
2018-06-24T22:06:26.496Z,94.70
2018-06-24T22:08:55.768Z,95.40
2018-06-24T22:11:23.727Z,95.20
2018-06-24T22:13:51.628Z,95.80
2018-06-24T22:16:19.379Z,96.10
2018-06-24T22:18:48.382Z,96.10
2018-06-24T22:21:16.649Z,96.10
2018-06-24T22:23:44.625Z,96.20
2018-06-24T22:26:12.492Z,96.00
2018-06-24T22:28:40.576Z,95.70
2018-06-24T22:31:09.313Z,95.60
2018-06-24T22:33:38.081Z,95.40
2018-06-24T22:36:06.214Z,95.20
2018-06-24T22:38:34.436Z,95.20
2018-06-24T22:41:04.274Z,95.00
2018-06-24T22:43:32.521Z,95.30
2018-06-24T22:46:01.642Z,95.30
2018-06-24T22:48:29.628Z,95.40
2018-06-24T22:50:58.552Z,95.70
2018-06-24T22:53:27.101Z,96.00
2018-06-24T22:55:55.177Z,96.40
2018-06-24T22:58:26.776Z,96.30
2018-06-24T23:00:54.844Z,96.80
2018-06-24T23:03:22.845Z,96.80
2018-06-24T23:05:50.745Z,97.00
2018-06-24T23:08:18.729Z,96.90
2018-06-24T23:10:46.709Z,97.00
2018-06-24T23:13:14.639Z,96.70
2018-06-24T23:15:43.929Z,97.00
2018-06-24T23:18:12.325Z,97.10
2018-06-24T23:20:40.176Z,96.80
2018-06-24T23:23:09.833Z,97.10
2018-06-24T23:25:38.623Z,97.10
2018-06-24T23:28:08.671Z,97.00
2018-06-24T23:30:37.005Z,97.30
2018-06-24T23:33:05.595Z,97.30
2018-06-24T23:35:34.150Z,97.10
2018-06-24T23:38:02.040Z,97.60
2018-06-24T23:40:29.934Z,97.50
2018-06-24T23:42:58.846Z,97.80
2018-06-24T23:45:26.783Z,97.90
2018-06-24T23:47:55.232Z,97.50
2018-06-24T23:50:23.272Z,97.60
2018-06-24T23:52:51.886Z,98.00
2018-06-24T23:55:20.919Z,97.60
2018-06-24T23:57:48.929Z,97.60
